sensor_id;sensor_type;location;lat;lon;timestamp;temperature;humidity
24384;DHT22;12504;52.870;8.798;2022-09-28T00:02:00;6.30;99.90
24384;DHT22;12504;52.870;8.798;2022-09-28T00:04:25;6.30;99.90
24384;DHT22;12504;52.870;8.798;2022-09-28T00:06:51;6.30;99.90
24384;DHT22;12504;52.870;8.798;2022-09-28T00:09:17;6.30;99.90
24384;DHT22;12504;52.870;8.798;2022-09-28T00:11:42;6.20;99.90
24384;DHT22;12504;52.870;8.798;2022-09-28T00:14:09;6.20;99.90
24384;DHT22;12504;52.870;8.798;2022-09-28T00:16:41;6.20;99.90
24384;DHT22;12504;52.870;8.798;2022-09-28T00:19:08;6.20;99.90
24384;DHT22;12504;52.870;8.798;2022-09-28T00:21:36;6.30;99.90
24384;DHT22;12504;52.870;8.798;2022-09-28T00:24:04;6.30;99.90
24384;DHT22;12504;52.870;8.798;2022-09-28T00:26:39;6.30;99.90
24384;DHT22;12504;52.870;8.798;2022-09-28T00:29:06;6.30;99.90
24384;DHT22;12504;52.870;8.798;2022-09-28T00:31:33;6.40;99.90
24384;DHT22;12504;52.870;8.798;2022-09-28T00:34:00;6.40;99.90
24384;DHT22;12504;52.870;8.798;2022-09-28T00:36:28;6.50;99.90
24384;DHT22;12504;52.870;8.798;2022-09-28T00:38:55;6.50;99.90
24384;DHT22;12504;52.870;8.798;2022-09-28T00:41:22;6.50;99.90
24384;DHT22;12504;52.870;8.798;2022-09-28T00:43:48;6.50;99.90
24384;DHT22;12504;52.870;8.798;2022-09-28T00:46:30;6.60;99.90
24384;DHT22;12504;52.870;8.798;2022-09-28T00:49:02;6.60;99.90
24384;DHT22;12504;52.870;8.798;2022-09-28T00:51:30;6.50;99.90
24384;DHT22;12504;52.870;8.798;2022-09-28T00:53:57;6.30;99.90
24384;DHT22;12504;52.870;8.798;2022-09-28T00:56:27;6.20;99.90
24384;DHT22;12504;52.870;8.798;2022-09-28T00:58:54;6.10;99.90
24384;DHT22;12504;52.870;8.798;2022-09-28T01:01:21;6.10;99.90
24384;DHT22;12504;52.870;8.798;2022-09-28T01:03:47;6.00;99.90
24384;DHT22;12504;52.870;8.798;2022-09-28T01:06:22;6.00;99.90
24384;DHT22;12504;52.870;8.798;2022-09-28T01:08:51;6.00;99.90
24384;DHT22;12504;52.870;8.798;2022-09-28T01:11:18;5.90;99.90
24384;DHT22;12504;52.870;8.798;2022-09-28T01:13:46;5.90;99.90
24384;DHT22;12504;52.870;8.798;2022-09-28T01:22:20;5.90;99.90
24384;DHT22;12504;52.870;8.798;2022-09-28T01:30:07;6.00;99.90
24384;DHT22;12504;52.870;8.798;2022-09-28T01:35:13;6.10;99.90
24384;DHT22;12504;52.870;8.798;2022-09-28T01:38:01;6.30;99.90
24384;DHT22;12504;52.870;8.798;2022-09-28T01:40:29;6.50;99.90
24384;DHT22;12504;52.870;8.798;2022-09-28T01:43:08;6.60;99.90
24384;DHT22;12504;52.870;8.798;2022-09-28T01:45:47;6.60;99.90
24384;DHT22;12504;52.870;8.798;2022-09-28T01:48:38;6.70;99.90
24384;DHT22;12504;52.870;8.798;2022-09-28T01:51:10;6.80;99.90
24384;DHT22;12504;52.870;8.798;2022-09-28T01:53:46;6.90;99.90
24384;DHT22;12504;52.870;8.798;2022-09-28T01:56:23;7.00;99.90
24384;DHT22;12504;52.870;8.798;2022-09-28T02:01:33;7.10;99.90
24384;DHT22;12504;52.870;8.798;2022-09-28T02:04:05;7.20;99.90
24384;DHT22;12504;52.870;8.798;2022-09-28T02:06:36;7.20;99.90
24384;DHT22;12504;52.870;8.798;2022-09-28T02:09:13;7.30;99.90
24384;DHT22;12504;52.870;8.798;2022-09-28T02:11:44;7.30;99.90
24384;DHT22;12504;52.870;8.798;2022-09-28T02:14:14;7.30;99.90
24384;DHT22;12504;52.870;8.798;2022-09-28T02:16:48;7.40;99.90
24384;DHT22;12504;52.870;8.798;2022-09-28T02:19:25;7.40;99.90
24384;DHT22;12504;52.870;8.798;2022-09-28T02:21:56;7.40;99.90
24384;DHT22;12504;52.870;8.798;2022-09-28T02:24:44;7.40;99.90
24384;DHT22;12504;52.870;8.798;2022-09-28T02:30:14;7.40;99.90
24384;DHT22;12504;52.870;8.798;2022-09-28T02:32:41;7.40;99.90
24384;DHT22;12504;52.870;8.798;2022-09-28T02:35:16;7.50;99.90
24384;DHT22;12504;52.870;8.798;2022-09-28T02:37:43;7.40;99.90
24384;DHT22;12504;52.870;8.798;2022-09-28T02:40:20;7.40;99.90
24384;DHT22;12504;52.870;8.798;2022-09-28T02:43:10;7.50;99.90
24384;DHT22;12504;52.870;8.798;2022-09-28T02:45:56;7.40;99.90
24384;DHT22;12504;52.870;8.798;2022-09-28T02:51:30;7.40;99.90
24384;DHT22;12504;52.870;8.798;2022-09-28T03:00:05;7.40;99.90
24384;DHT22;12504;52.870;8.798;2022-09-28T03:05:29;7.40;99.90
24384;DHT22;12504;52.870;8.798;2022-09-28T03:08:06;7.40;99.90
24384;DHT22;12504;52.870;8.798;2022-09-28T03:10:55;7.40;99.90
24384;DHT22;12504;52.870;8.798;2022-09-28T03:13:24;7.30;99.90
24384;DHT22;12504;52.870;8.798;2022-09-28T03:15:50;7.30;99.90
24384;DHT22;12504;52.870;8.798;2022-09-28T03:18:17;7.30;99.90
24384;DHT22;12504;52.870;8.798;2022-09-28T03:20:42;7.30;99.90
24384;DHT22;12504;52.870;8.798;2022-09-28T03:23:09;7.20;99.90
24384;DHT22;12504;52.870;8.798;2022-09-28T03:25:34;7.20;99.90
24384;DHT22;12504;52.870;8.798;2022-09-28T03:28:00;7.10;99.90
24384;DHT22;12504;52.870;8.798;2022-09-28T03:30:27;7.10;99.90
24384;DHT22;12504;52.870;8.798;2022-09-28T03:32:59;7.10;99.90
24384;DHT22;12504;52.870;8.798;2022-09-28T03:35:27;7.10;99.90
24384;DHT22;12504;52.870;8.798;2022-09-28T03:37:54;7.20;99.90
24384;DHT22;12504;52.870;8.798;2022-09-28T03:40:20;7.20;99.90
24384;DHT22;12504;52.870;8.798;2022-09-28T03:42:46;7.20;99.90
24384;DHT22;12504;52.870;8.798;2022-09-28T03:45:12;7.20;99.90
24384;DHT22;12504;52.870;8.798;2022-09-28T03:47:38;7.20;99.90
24384;DHT22;12504;52.870;8.798;2022-09-28T03:50:04;7.10;99.90
24384;DHT22;12504;52.870;8.798;2022-09-28T03:52:31;7.10;99.90
24384;DHT22;12504;52.870;8.798;2022-09-28T03:54:57;7.00;99.90
24384;DHT22;12504;52.870;8.798;2022-09-28T03:57:22;7.10;99.90
24384;DHT22;12504;52.870;8.798;2022-09-28T03:59:48;7.00;99.90
24384;DHT22;12504;52.870;8.798;2022-09-28T04:02:14;7.00;99.90
24384;DHT22;12504;52.870;8.798;2022-09-28T04:04:41;7.00;99.90
24384;DHT22;12504;52.870;8.798;2022-09-28T04:07:06;7.00;99.90
24384;DHT22;12504;52.870;8.798;2022-09-28T04:09:32;7.00;99.90
24384;DHT22;12504;52.870;8.798;2022-09-28T04:11:58;7.00;99.90
24384;DHT22;12504;52.870;8.798;2022-09-28T04:14:23;7.00;99.90
24384;DHT22;12504;52.870;8.798;2022-09-28T04:16:49;6.80;99.90
24384;DHT22;12504;52.870;8.798;2022-09-28T04:19:19;6.70;99.90
24384;DHT22;12504;52.870;8.798;2022-09-28T04:22:04;6.60;99.90
24384;DHT22;12504;52.870;8.798;2022-09-28T04:24:30;6.60;99.90
24384;DHT22;12504;52.870;8.798;2022-09-28T04:26:56;6.50;99.90
24384;DHT22;12504;52.870;8.798;2022-09-28T04:29:41;6.60;99.90
24384;DHT22;12504;52.870;8.798;2022-09-28T04:32:09;6.60;99.90
24384;DHT22;12504;52.870;8.798;2022-09-28T04:34:36;6.70;99.90
24384;DHT22;12504;52.870;8.798;2022-09-28T04:37:02;6.60;99.90
24384;DHT22;12504;52.870;8.798;2022-09-28T04:39:27;6.70;99.90
24384;DHT22;12504;52.870;8.798;2022-09-28T04:41:55;6.50;99.90
24384;DHT22;12504;52.870;8.798;2022-09-28T04:44:21;6.50;99.90
24384;DHT22;12504;52.870;8.798;2022-09-28T04:46:49;6.50;99.90
24384;DHT22;12504;52.870;8.798;2022-09-28T04:49:37;6.60;99.90
24384;DHT22;12504;52.870;8.798;2022-09-28T04:52:06;6.50;99.90
24384;DHT22;12504;52.870;8.798;2022-09-28T04:54:33;6.50;99.90
24384;DHT22;12504;52.870;8.798;2022-09-28T04:56:59;6.60;99.90
24384;DHT22;12504;52.870;8.798;2022-09-28T04:59:24;6.50;99.90
24384;DHT22;12504;52.870;8.798;2022-09-28T05:01:50;6.40;99.90
24384;DHT22;12504;52.870;8.798;2022-09-28T05:04:36;6.40;99.90
24384;DHT22;12504;52.870;8.798;2022-09-28T05:07:21;6.40;99.90
24384;DHT22;12504;52.870;8.798;2022-09-28T05:09:47;6.40;99.90
24384;DHT22;12504;52.870;8.798;2022-09-28T05:12:13;6.30;99.90
24384;DHT22;12504;52.870;8.798;2022-09-28T05:14:39;6.40;99.90
24384;DHT22;12504;52.870;8.798;2022-09-28T05:17:05;6.50;99.90
24384;DHT22;12504;52.870;8.798;2022-09-28T05:19:38;6.50;99.90
24384;DHT22;12504;52.870;8.798;2022-09-28T05:22:04;6.60;99.90
24384;DHT22;12504;52.870;8.798;2022-09-28T05:24:38;6.70;99.90
24384;DHT22;12504;52.870;8.798;2022-09-28T05:27:03;6.60;99.90
24384;DHT22;12504;52.870;8.798;2022-09-28T05:29:29;6.70;99.90
24384;DHT22;12504;52.870;8.798;2022-09-28T05:32:13;6.70;99.90
24384;DHT22;12504;52.870;8.798;2022-09-28T05:34:55;6.70;99.90
24384;DHT22;12504;52.870;8.798;2022-09-28T05:37:24;6.60;99.90
24384;DHT22;12504;52.870;8.798;2022-09-28T05:39:50;6.70;99.90
24384;DHT22;12504;52.870;8.798;2022-09-28T05:42:16;6.70;99.90
24384;DHT22;12504;52.870;8.798;2022-09-28T05:44:42;6.70;99.90
24384;DHT22;12504;52.870;8.798;2022-09-28T05:47:08;6.70;99.90
24384;DHT22;12504;52.870;8.798;2022-09-28T05:49:33;6.70;99.90
24384;DHT22;12504;52.870;8.798;2022-09-28T05:52:00;6.80;99.90
24384;DHT22;12504;52.870;8.798;2022-09-28T05:54:26;6.70;99.90
24384;DHT22;12504;52.870;8.798;2022-09-28T05:56:52;6.70;99.90
24384;DHT22;12504;52.870;8.798;2022-09-28T05:59:17;6.70;99.90
24384;DHT22;12504;52.870;8.798;2022-09-28T06:01:43;6.60;99.90
24384;DHT22;12504;52.870;8.798;2022-09-28T06:04:10;6.70;99.90
24384;DHT22;12504;52.870;8.798;2022-09-28T06:06:40;6.70;99.90
24384;DHT22;12504;52.870;8.798;2022-09-28T06:09:05;6.60;99.90
24384;DHT22;12504;52.870;8.798;2022-09-28T06:11:36;6.60;99.90
24384;DHT22;12504;52.870;8.798;2022-09-28T06:14:08;6.50;99.90
24384;DHT22;12504;52.870;8.798;2022-09-28T06:16:34;6.50;99.90
24384;DHT22;12504;52.870;8.798;2022-09-28T06:19:00;6.60;99.90
24384;DHT22;12504;52.870;8.798;2022-09-28T06:21:37;6.70;99.90
24384;DHT22;12504;52.870;8.798;2022-09-28T06:24:04;6.70;99.90
24384;DHT22;12504;52.870;8.798;2022-09-28T06:26:30;6.80;99.90
24384;DHT22;12504;52.870;8.798;2022-09-28T06:28:56;6.80;99.90
24384;DHT22;12504;52.870;8.798;2022-09-28T06:31:22;6.90;99.90
24384;DHT22;12504;52.870;8.798;2022-09-28T06:33:50;6.90;99.90
24384;DHT22;12504;52.870;8.798;2022-09-28T06:36:17;7.00;99.90
24384;DHT22;12504;52.870;8.798;2022-09-28T06:38:44;7.00;99.90
24384;DHT22;12504;52.870;8.798;2022-09-28T06:41:12;7.00;99.90
24384;DHT22;12504;52.870;8.798;2022-09-28T06:43:39;7.10;99.90
24384;DHT22;12504;52.870;8.798;2022-09-28T06:46:30;7.00;99.90
24384;DHT22;12504;52.870;8.798;2022-09-28T06:49:18;7.10;99.90
24384;DHT22;12504;52.870;8.798;2022-09-28T06:52:10;7.10;99.90
24384;DHT22;12504;52.870;8.798;2022-09-28T06:54:54;7.10;99.90
24384;DHT22;12504;52.870;8.798;2022-09-28T06:57:22;7.10;99.90
24384;DHT22;12504;52.870;8.798;2022-09-28T06:59:49;7.10;99.90
24384;DHT22;12504;52.870;8.798;2022-09-28T07:02:14;7.20;99.90
24384;DHT22;12504;52.870;8.798;2022-09-28T07:05:06;7.20;99.90
24384;DHT22;12504;52.870;8.798;2022-09-28T07:07:53;7.20;99.90
24384;DHT22;12504;52.870;8.798;2022-09-28T07:10:49;7.10;99.90
24384;DHT22;12504;52.870;8.798;2022-09-28T07:13:39;7.10;99.90
24384;DHT22;12504;52.870;8.798;2022-09-28T07:16:06;7.10;99.90
24384;DHT22;12504;52.870;8.798;2022-09-28T07:18:34;7.10;99.90
24384;DHT22;12504;52.870;8.798;2022-09-28T07:21:01;7.20;99.90
24384;DHT22;12504;52.870;8.798;2022-09-28T07:23:29;7.20;99.90
24384;DHT22;12504;52.870;8.798;2022-09-28T07:26:10;7.10;99.90
24384;DHT22;12504;52.870;8.798;2022-09-28T07:28:51;7.00;99.90
24384;DHT22;12504;52.870;8.798;2022-09-28T07:31:29;7.00;99.90
24384;DHT22;12504;52.870;8.798;2022-09-28T07:34:12;7.00;99.90
24384;DHT22;12504;52.870;8.798;2022-09-28T07:36:53;7.00;99.90
24384;DHT22;12504;52.870;8.798;2022-09-28T07:39:22;7.10;99.90
24384;DHT22;12504;52.870;8.798;2022-09-28T07:41:48;7.10;99.90
24384;DHT22;12504;52.870;8.798;2022-09-28T07:44:14;6.90;99.90
24384;DHT22;12504;52.870;8.798;2022-09-28T07:46:40;6.80;99.90
24384;DHT22;12504;52.870;8.798;2022-09-28T07:49:15;6.80;99.90
24384;DHT22;12504;52.870;8.798;2022-09-28T07:51:53;6.80;99.90
24384;DHT22;12504;52.870;8.798;2022-09-28T07:54:36;6.70;99.90
24384;DHT22;12504;52.870;8.798;2022-09-28T07:57:23;6.80;99.90
24384;DHT22;12504;52.870;8.798;2022-09-28T08:00:09;6.90;99.90
24384;DHT22;12504;52.870;8.798;2022-09-28T08:02:39;7.00;99.90
24384;DHT22;12504;52.870;8.798;2022-09-28T08:05:05;7.10;99.90
24384;DHT22;12504;52.870;8.798;2022-09-28T08:07:34;7.20;99.90
24384;DHT22;12504;52.870;8.798;2022-09-28T08:10:05;7.20;99.90
24384;DHT22;12504;52.870;8.798;2022-09-28T08:12:58;7.30;99.90
24384;DHT22;12504;52.870;8.798;2022-09-28T08:15:41;7.30;99.90
24384;DHT22;12504;52.870;8.798;2022-09-28T08:18:16;7.40;99.90
24384;DHT22;12504;52.870;8.798;2022-09-28T08:20:41;7.40;99.90
24384;DHT22;12504;52.870;8.798;2022-09-28T08:23:26;7.50;99.90
24384;DHT22;12504;52.870;8.798;2022-09-28T08:25:52;7.40;99.90
24384;DHT22;12504;52.870;8.798;2022-09-28T08:28:20;7.40;99.90
24384;DHT22;12504;52.870;8.798;2022-09-28T08:30:49;7.50;99.90
24384;DHT22;12504;52.870;8.798;2022-09-28T08:33:24;7.50;99.90
24384;DHT22;12504;52.870;8.798;2022-09-28T08:36:09;7.50;99.90
24384;DHT22;12504;52.870;8.798;2022-09-28T08:38:54;7.60;99.90
24384;DHT22;12504;52.870;8.798;2022-09-28T08:44:23;7.70;99.90
24384;DHT22;12504;52.870;8.798;2022-09-28T08:47:23;7.80;99.90
24384;DHT22;12504;52.870;8.798;2022-09-28T08:50:40;7.90;99.90
24384;DHT22;12504;52.870;8.798;2022-09-28T08:53:31;8.10;99.90
24384;DHT22;12504;52.870;8.798;2022-09-28T08:56:28;8.20;99.90
24384;DHT22;12504;52.870;8.798;2022-09-28T08:59:04;8.20;99.90
24384;DHT22;12504;52.870;8.798;2022-09-28T09:01:37;8.30;99.90
24384;DHT22;12504;52.870;8.798;2022-09-28T09:04:08;8.30;99.90
24384;DHT22;12504;52.870;8.798;2022-09-28T09:10:07;8.30;99.90
24384;DHT22;12504;52.870;8.798;2022-09-28T09:15:23;8.10;99.90
24384;DHT22;12504;52.870;8.798;2022-09-28T09:18:13;8.00;99.90
24384;DHT22;12504;52.870;8.798;2022-09-28T09:20:56;7.80;99.90
24384;DHT22;12504;52.870;8.798;2022-09-28T09:23:42;7.90;99.90
24384;DHT22;12504;52.870;8.798;2022-09-28T09:26:19;7.90;99.90
24384;DHT22;12504;52.870;8.798;2022-09-28T09:48:55;9.10;99.90
24384;DHT22;12504;52.870;8.798;2022-09-28T09:51:44;9.30;99.90
24384;DHT22;12504;52.870;8.798;2022-09-28T09:57:19;9.40;99.90
24384;DHT22;12504;52.870;8.798;2022-09-28T09:59:59;9.50;99.90
24384;DHT22;12504;52.870;8.798;2022-09-28T10:02:39;9.60;99.90
24384;DHT22;12504;52.870;8.798;2022-09-28T10:05:23;9.60;99.90
24384;DHT22;12504;52.870;8.798;2022-09-28T10:10:48;9.50;99.90
24384;DHT22;12504;52.870;8.798;2022-09-28T10:13:18;9.60;99.90
24384;DHT22;12504;52.870;8.798;2022-09-28T10:15:44;9.60;99.90
24384;DHT22;12504;52.870;8.798;2022-09-28T10:18:26;9.50;99.90
24384;DHT22;12504;52.870;8.798;2022-09-28T10:21:16;9.50;99.90
24384;DHT22;12504;52.870;8.798;2022-09-28T10:24:02;9.50;99.90
24384;DHT22;12504;52.870;8.798;2022-09-28T10:26:34;9.50;99.90
24384;DHT22;12504;52.870;8.798;2022-09-28T10:29:04;9.50;99.90
24384;DHT22;12504;52.870;8.798;2022-09-28T10:31:38;9.50;99.90
24384;DHT22;12504;52.870;8.798;2022-09-28T10:34:11;9.50;99.90
24384;DHT22;12504;52.870;8.798;2022-09-28T10:36:47;9.50;99.90
24384;DHT22;12504;52.870;8.798;2022-09-28T10:41:58;9.50;99.90
24384;DHT22;12504;52.870;8.798;2022-09-28T10:44:27;9.60;99.90
24384;DHT22;12504;52.870;8.798;2022-09-28T10:47:02;9.80;99.90
24384;DHT22;12504;52.870;8.798;2022-09-28T10:49:42;10.10;99.90
24384;DHT22;12504;52.870;8.798;2022-09-28T10:52:29;10.20;99.90
24384;DHT22;12504;52.870;8.798;2022-09-28T10:54:56;10.50;99.90
24384;DHT22;12504;52.870;8.798;2022-09-28T10:57:35;10.70;99.90
24384;DHT22;12504;52.870;8.798;2022-09-28T11:00:05;11.00;99.90
24384;DHT22;12504;52.870;8.798;2022-09-28T11:02:40;11.00;99.90
24384;DHT22;12504;52.870;8.798;2022-09-28T11:05:21;10.90;99.90
24384;DHT22;12504;52.870;8.798;2022-09-28T11:07:47;11.00;99.90
24384;DHT22;12504;52.870;8.798;2022-09-28T11:10:21;11.20;99.90
24384;DHT22;12504;52.870;8.798;2022-09-28T11:12:50;11.30;99.90
24384;DHT22;12504;52.870;8.798;2022-09-28T11:15:20;11.40;99.90
24384;DHT22;12504;52.870;8.798;2022-09-28T11:17:48;11.50;99.90
24384;DHT22;12504;52.870;8.798;2022-09-28T11:23:12;12.40;99.90
24384;DHT22;12504;52.870;8.798;2022-09-28T11:25:41;14.00;99.90
24384;DHT22;12504;52.870;8.798;2022-09-28T11:28:21;15.70;99.90
24384;DHT22;12504;52.870;8.798;2022-09-28T11:30:50;16.30;90.70
24384;DHT22;12504;52.870;8.798;2022-09-28T11:33:33;16.50;99.90
24384;DHT22;12504;52.870;8.798;2022-09-28T11:36:36;16.70;96.90
24384;DHT22;12504;52.870;8.798;2022-09-28T11:44:45;16.20;15.00
24384;DHT22;12504;52.870;8.798;2022-09-28T11:52:26;16.80;34.20
24384;DHT22;12504;52.870;8.798;2022-09-28T11:55:00;17.70;1.00
24384;DHT22;12504;52.870;8.798;2022-09-28T11:57:34;18.10;1.00
24384;DHT22;12504;52.870;8.798;2022-09-28T12:00:15;19.00;1.00
24384;DHT22;12504;52.870;8.798;2022-09-28T12:03:04;19.90;1.00
24384;DHT22;12504;52.870;8.798;2022-09-28T12:05:36;20.40;1.00
24384;DHT22;12504;52.870;8.798;2022-09-28T12:08:17;20.40;99.90
24384;DHT22;12504;52.870;8.798;2022-09-28T12:14:12;17.40;1.00
24384;DHT22;12504;52.870;8.798;2022-09-28T12:16:43;15.70;92.80
24384;DHT22;12504;52.870;8.798;2022-09-28T12:19:33;15.00;91.00
24384;DHT22;12504;52.870;8.798;2022-09-28T12:22:09;14.20;99.90
24384;DHT22;12504;52.870;8.798;2022-09-28T12:24:41;13.60;99.90
24384;DHT22;12504;52.870;8.798;2022-09-28T12:27:16;13.20;99.90
24384;DHT22;12504;52.870;8.798;2022-09-28T12:30:33;12.80;99.90
24384;DHT22;12504;52.870;8.798;2022-09-28T12:32:37;12.30;99.90
24384;DHT22;12504;52.870;8.798;2022-09-28T12:35:16;12.00;99.90
24384;DHT22;12504;52.870;8.798;2022-09-28T12:44:04;11.50;99.90
24384;DHT22;12504;52.870;8.798;2022-09-28T12:46:35;11.20;99.90
24384;DHT22;12504;52.870;8.798;2022-09-28T12:51:52;11.00;99.90
24384;DHT22;12504;52.870;8.798;2022-09-28T12:57:06;10.70;99.90
24384;DHT22;12504;52.870;8.798;2022-09-28T13:08:12;13.70;99.90
24384;DHT22;12504;52.870;8.798;2022-09-28T13:11:03;14.10;99.90
24384;DHT22;12504;52.870;8.798;2022-09-28T13:14:01;14.50;99.90
24384;DHT22;12504;52.870;8.798;2022-09-28T13:19:18;14.50;99.90
24384;DHT22;12504;52.870;8.798;2022-09-28T13:22:12;14.40;99.90
24384;DHT22;12504;52.870;8.798;2022-09-28T13:24:42;14.50;99.90
24384;DHT22;12504;52.870;8.798;2022-09-28T13:27:13;14.40;99.90
24384;DHT22;12504;52.870;8.798;2022-09-28T13:29:41;14.60;99.90
24384;DHT22;12504;52.870;8.798;2022-09-28T13:32:08;15.20;90.50
24384;DHT22;12504;52.870;8.798;2022-09-28T13:34:37;15.80;15.70
24384;DHT22;12504;52.870;8.798;2022-09-28T13:42:20;15.90;69.50
24384;DHT22;12504;52.870;8.798;2022-09-28T13:45:12;15.80;1.00
24384;DHT22;12504;52.870;8.798;2022-09-28T13:53:46;15.20;72.40
24384;DHT22;12504;52.870;8.798;2022-09-28T13:59:07;15.50;90.20
24384;DHT22;12504;52.870;8.798;2022-09-28T14:01:38;15.50;84.20
24384;DHT22;12504;52.870;8.798;2022-09-28T14:04:18;15.40;90.80
24384;DHT22;12504;52.870;8.798;2022-09-28T14:06:56;15.30;28.10
24384;DHT22;12504;52.870;8.798;2022-09-28T14:09:48;14.90;1.00
24384;DHT22;12504;52.870;8.798;2022-09-28T14:14:57;14.20;99.90
24384;DHT22;12504;52.870;8.798;2022-09-28T14:19:52;14.00;99.90
24384;DHT22;12504;52.870;8.798;2022-09-28T14:35:57;13.00;99.90
24384;DHT22;12504;52.870;8.798;2022-09-28T14:38:33;13.00;99.90
24384;DHT22;12504;52.870;8.798;2022-09-28T14:41:39;13.00;99.90
24384;DHT22;12504;52.870;8.798;2022-09-28T14:44:07;13.00;99.90
24384;DHT22;12504;52.870;8.798;2022-09-28T14:46:35;12.90;99.90
24384;DHT22;12504;52.870;8.798;2022-09-28T14:49:02;12.80;99.90
24384;DHT22;12504;52.870;8.798;2022-09-28T14:54:01;12.70;99.90
24384;DHT22;12504;52.870;8.798;2022-09-28T14:59:31;12.60;99.90
24384;DHT22;12504;52.870;8.798;2022-09-28T15:02:11;12.70;99.90
24384;DHT22;12504;52.870;8.798;2022-09-28T15:07:18;13.40;99.90
24384;DHT22;12504;52.870;8.798;2022-09-28T15:09:51;14.10;99.90
24384;DHT22;12504;52.870;8.798;2022-09-28T15:12:19;14.60;98.80
24384;DHT22;12504;52.870;8.798;2022-09-28T15:14:57;14.70;99.90
24384;DHT22;12504;52.870;8.798;2022-09-28T15:17:44;15.20;16.30
24384;DHT22;12504;52.870;8.798;2022-09-28T15:20:26;15.40;44.20
24384;DHT22;12504;52.870;8.798;2022-09-28T15:22:56;15.40;91.50
24384;DHT22;12504;52.870;8.798;2022-09-28T15:25:28;15.70;84.40
24384;DHT22;12504;52.870;8.798;2022-09-28T15:27:59;16.00;21.20
24384;DHT22;12504;52.870;8.798;2022-09-28T15:30:31;15.90;62.00
24384;DHT22;12504;52.870;8.798;2022-09-28T15:32:59;15.60;50.30
24384;DHT22;12504;52.870;8.798;2022-09-28T15:36:04;15.20;99.90
24384;DHT22;12504;52.870;8.798;2022-09-28T15:38:31;15.10;97.10
24384;DHT22;12504;52.870;8.798;2022-09-28T15:41:02;15.10;95.40
24384;DHT22;12504;52.870;8.798;2022-09-28T15:43:29;15.30;92.90
24384;DHT22;12504;52.870;8.798;2022-09-28T15:46:12;15.00;95.20
24384;DHT22;12504;52.870;8.798;2022-09-28T15:48:51;14.30;99.90
24384;DHT22;12504;52.870;8.798;2022-09-28T15:51:18;13.80;99.90
24384;DHT22;12504;52.870;8.798;2022-09-28T15:53:59;13.40;99.90
24384;DHT22;12504;52.870;8.798;2022-09-28T15:56:26;13.30;99.90
24384;DHT22;12504;52.870;8.798;2022-09-28T15:59:18;13.10;99.90
24384;DHT22;12504;52.870;8.798;2022-09-28T16:01:46;13.40;99.90
24384;DHT22;12504;52.870;8.798;2022-09-28T16:04:32;13.50;99.90
24384;DHT22;12504;52.870;8.798;2022-09-28T16:07:25;13.60;99.90
24384;DHT22;12504;52.870;8.798;2022-09-28T16:12:41;13.60;99.90
24384;DHT22;12504;52.870;8.798;2022-09-28T16:15:20;13.30;99.90
24384;DHT22;12504;52.870;8.798;2022-09-28T16:17:51;13.00;99.90
24384;DHT22;12504;52.870;8.798;2022-09-28T16:20:36;12.70;99.90
24384;DHT22;12504;52.870;8.798;2022-09-28T16:23:24;12.10;99.90
24384;DHT22;12504;52.870;8.798;2022-09-28T16:26:05;11.60;99.90
24384;DHT22;12504;52.870;8.798;2022-09-28T16:33:36;10.50;99.90
24384;DHT22;12504;52.870;8.798;2022-09-28T16:36:03;10.50;99.90
24384;DHT22;12504;52.870;8.798;2022-09-28T16:38:35;10.50;99.90
24384;DHT22;12504;52.870;8.798;2022-09-28T16:41:04;10.50;99.90
24384;DHT22;12504;52.870;8.798;2022-09-28T16:43:32;10.40;99.90
24384;DHT22;12504;52.870;8.798;2022-09-28T16:46:05;10.30;99.90
24384;DHT22;12504;52.870;8.798;2022-09-28T16:48:36;10.20;99.90
24384;DHT22;12504;52.870;8.798;2022-09-28T16:51:04;10.10;99.90
24384;DHT22;12504;52.870;8.798;2022-09-28T16:53:29;10.10;99.90
24384;DHT22;12504;52.870;8.798;2022-09-28T16:56:14;10.00;99.90
24384;DHT22;12504;52.870;8.798;2022-09-28T16:58:40;9.80;99.90
24384;DHT22;12504;52.870;8.798;2022-09-28T17:01:10;9.80;99.90
24384;DHT22;12504;52.870;8.798;2022-09-28T17:03:36;9.70;99.90
24384;DHT22;12504;52.870;8.798;2022-09-28T17:06:03;9.60;99.90
24384;DHT22;12504;52.870;8.798;2022-09-28T17:08:30;9.50;99.90
24384;DHT22;12504;52.870;8.798;2022-09-28T17:10:58;9.40;99.90
24384;DHT22;12504;52.870;8.798;2022-09-28T17:13:28;9.40;99.90
24384;DHT22;12504;52.870;8.798;2022-09-28T17:16:03;9.30;99.90
24384;DHT22;12504;52.870;8.798;2022-09-28T17:18:30;9.20;99.90
24384;DHT22;12504;52.870;8.798;2022-09-28T17:21:01;9.10;99.90
24384;DHT22;12504;52.870;8.798;2022-09-28T17:23:27;9.00;99.90
24384;DHT22;12504;52.870;8.798;2022-09-28T17:25:53;8.90;99.90
24384;DHT22;12504;52.870;8.798;2022-09-28T17:28:23;8.80;99.90
24384;DHT22;12504;52.870;8.798;2022-09-28T17:30:49;8.70;99.90
24384;DHT22;12504;52.870;8.798;2022-09-28T17:33:15;8.60;99.90
24384;DHT22;12504;52.870;8.798;2022-09-28T17:35:41;8.60;99.90
24384;DHT22;12504;52.870;8.798;2022-09-28T17:38:13;8.50;99.90
24384;DHT22;12504;52.870;8.798;2022-09-28T17:40:41;8.50;99.90
24384;DHT22;12504;52.870;8.798;2022-09-28T17:43:08;8.50;99.90
24384;DHT22;12504;52.870;8.798;2022-09-28T17:45:35;8.40;99.90
24384;DHT22;12504;52.870;8.798;2022-09-28T17:48:09;8.40;99.90
24384;DHT22;12504;52.870;8.798;2022-09-28T17:50:36;8.40;99.90
24384;DHT22;12504;52.870;8.798;2022-09-28T17:53:02;8.30;99.90
24384;DHT22;12504;52.870;8.798;2022-09-28T17:55:32;8.30;99.90
24384;DHT22;12504;52.870;8.798;2022-09-28T17:58:00;8.20;99.90
24384;DHT22;12504;52.870;8.798;2022-09-28T18:00:26;8.20;99.90
24384;DHT22;12504;52.870;8.798;2022-09-28T18:02:56;8.10;99.90
24384;DHT22;12504;52.870;8.798;2022-09-28T18:05:24;8.10;99.90
24384;DHT22;12504;52.870;8.798;2022-09-28T18:07:50;8.00;99.90
24384;DHT22;12504;52.870;8.798;2022-09-28T18:10:22;8.00;99.90
24384;DHT22;12504;52.870;8.798;2022-09-28T18:12:49;8.00;99.90
24384;DHT22;12504;52.870;8.798;2022-09-28T18:15:16;7.90;99.90
24384;DHT22;12504;52.870;8.798;2022-09-28T18:17:42;7.90;99.90
24384;DHT22;12504;52.870;8.798;2022-09-28T18:20:10;7.90;99.90
24384;DHT22;12504;52.870;8.798;2022-09-28T18:22:36;7.80;99.90
24384;DHT22;12504;52.870;8.798;2022-09-28T18:25:02;7.80;99.90
24384;DHT22;12504;52.870;8.798;2022-09-28T18:27:29;7.70;99.90
24384;DHT22;12504;52.870;8.798;2022-09-28T18:29:55;7.70;99.90
24384;DHT22;12504;52.870;8.798;2022-09-28T18:32:21;7.60;99.90
24384;DHT22;12504;52.870;8.798;2022-09-28T18:34:47;7.50;99.90
24384;DHT22;12504;52.870;8.798;2022-09-28T18:37:13;7.60;99.90
24384;DHT22;12504;52.870;8.798;2022-09-28T18:39:39;7.50;99.90
24384;DHT22;12504;52.870;8.798;2022-09-28T18:42:05;7.50;99.90
24384;DHT22;12504;52.870;8.798;2022-09-28T18:44:31;7.50;99.90
24384;DHT22;12504;52.870;8.798;2022-09-28T18:46:57;7.40;99.90
24384;DHT22;12504;52.870;8.798;2022-09-28T18:49:23;7.40;99.90
24384;DHT22;12504;52.870;8.798;2022-09-28T18:51:48;7.40;99.90
24384;DHT22;12504;52.870;8.798;2022-09-28T18:54:14;7.30;99.90
24384;DHT22;12504;52.870;8.798;2022-09-28T18:56:40;7.30;99.90